createdAt,value
2018-08-17T00:00:03.086Z,15.43
2018-08-17T00:02:31.272Z,13.23
2018-08-17T00:04:59.468Z,9.00
2018-08-17T00:07:27.657Z,11.43
2018-08-17T00:09:55.832Z,10.43
2018-08-17T00:12:24.010Z,14.53
2018-08-17T00:14:52.266Z,8.17
2018-08-17T00:17:20.449Z,10.30
2018-08-17T00:19:48.628Z,8.50
2018-08-17T00:22:16.809Z,9.53
2018-08-17T00:24:44.992Z,12.20
2018-08-17T00:27:13.172Z,9.80
2018-08-17T00:29:41.348Z,7.70
2018-08-17T00:32:09.819Z,8.97
2018-08-17T00:34:37.994Z,11.30
2018-08-17T00:37:06.164Z,9.07
2018-08-17T00:39:34.340Z,8.87
2018-08-17T00:42:02.516Z,15.43
2018-08-17T00:44:30.700Z,15.70
2018-08-17T00:46:58.884Z,18.63
2018-08-17T00:49:27.065Z,14.70
2018-08-17T00:51:55.244Z,16.53
2018-08-17T00:54:23.434Z,14.60
2018-08-17T00:56:51.617Z,12.63
2018-08-17T00:59:19.915Z,7.53
2018-08-17T01:01:48.100Z,10.13
2018-08-17T01:04:16.277Z,10.87
2018-08-17T01:06:44.493Z,14.67
2018-08-17T01:09:12.672Z,10.20
2018-08-17T01:11:40.845Z,9.87
2018-08-17T01:14:09.025Z,7.97
2018-08-17T01:16:37.201Z,12.50
2018-08-17T01:19:05.386Z,18.23
2018-08-17T01:21:33.564Z,15.40
2018-08-17T01:24:01.972Z,11.50
2018-08-17T01:26:30.153Z,16.37
2018-08-17T01:28:58.344Z,15.60
2018-08-17T01:31:26.522Z,9.00
2018-08-17T01:33:54.705Z,8.50
2018-08-17T01:36:22.872Z,7.03
2018-08-17T01:38:51.046Z,6.00
2018-08-17T01:41:19.220Z,5.87
2018-08-17T01:43:47.394Z,5.90
2018-08-17T01:46:15.566Z,6.03
2018-08-17T01:48:43.773Z,6.27
2018-08-17T01:51:11.957Z,5.27
2018-08-17T01:53:40.145Z,5.40
2018-08-17T01:56:08.441Z,5.90
2018-08-17T01:58:36.620Z,5.40
2018-08-17T02:01:04.809Z,5.60
2018-08-17T02:03:32.997Z,5.30
2018-08-17T02:06:01.161Z,5.27
2018-08-17T02:08:29.356Z,5.77
2018-08-17T02:10:57.549Z,6.20
2018-08-17T02:13:25.723Z,6.40
2018-08-17T02:15:54.049Z,6.53
2018-08-17T02:18:22.324Z,6.50
2018-08-17T02:20:50.529Z,5.50
2018-08-17T02:23:18.713Z,6.03
2018-08-17T02:25:47.061Z,5.80
2018-08-17T02:28:15.257Z,6.67
2018-08-17T02:30:43.433Z,5.13
2018-08-17T02:33:11.607Z,5.63
2018-08-17T02:35:39.780Z,5.73
2018-08-17T02:38:07.949Z,6.97
2018-08-17T02:40:36.121Z,5.93
2018-08-17T02:43:04.301Z,6.60
2018-08-17T02:45:32.479Z,6.53
2018-08-17T02:48:01.665Z,6.27
2018-08-17T02:50:29.845Z,5.57
2018-08-17T02:52:58.013Z,6.50
2018-08-17T02:55:26.193Z,5.87
2018-08-17T02:57:54.360Z,5.70
2018-08-17T03:00:22.555Z,5.83
2018-08-17T03:02:50.724Z,5.43
2018-08-17T03:05:18.951Z,5.40
2018-08-17T03:07:47.119Z,6.30
2018-08-17T03:10:15.293Z,5.67
2018-08-17T03:12:43.478Z,5.30
2018-08-17T03:15:11.651Z,5.53
2018-08-17T03:17:39.834Z,5.37
2018-08-17T03:20:08.013Z,5.53
2018-08-17T03:22:36.218Z,5.67
2018-08-17T03:25:04.391Z,5.60
2018-08-17T03:27:32.565Z,6.17
2018-08-17T03:30:00.737Z,5.27
2018-08-17T03:32:29.005Z,5.50
2018-08-17T03:34:57.176Z,6.03
2018-08-17T03:37:25.462Z,7.00
2018-08-17T03:39:53.645Z,5.40
2018-08-17T03:42:21.824Z,5.17
2018-08-17T03:44:50.011Z,5.10
2018-08-17T03:47:18.226Z,4.97
2018-08-17T03:49:46.392Z,5.17
2018-08-17T03:52:14.586Z,5.57
2018-08-17T03:54:42.757Z,5.03
2018-08-17T03:57:10.933Z,5.20
2018-08-17T03:59:39.102Z,5.57
2018-08-17T04:02:07.757Z,5.20
2018-08-17T04:04:36.096Z,5.03
2018-08-17T04:07:04.585Z,5.83
2018-08-17T04:09:32.761Z,5.60
2018-08-17T04:12:00.948Z,5.57
2018-08-17T04:14:29.144Z,6.03
2018-08-17T04:16:57.410Z,6.07
2018-08-17T04:19:25.604Z,5.33
2018-08-17T04:21:53.813Z,5.63
2018-08-17T04:24:21.988Z,7.27
2018-08-17T04:26:50.160Z,12.97
2018-08-17T04:29:18.344Z,14.97
2018-08-17T04:31:46.516Z,15.17
2018-08-17T04:34:14.692Z,11.43
2018-08-17T04:36:42.869Z,10.23
2018-08-17T04:39:11.049Z,8.40
2018-08-17T04:41:39.230Z,5.43
2018-08-17T04:44:07.612Z,6.03
2018-08-17T04:46:35.785Z,5.40
2018-08-17T04:49:03.968Z,5.20
2018-08-17T04:51:32.140Z,5.63
2018-08-17T04:54:00.325Z,11.73
2018-08-17T04:56:28.541Z,14.03
2018-08-17T04:58:56.725Z,40.30
2018-08-17T05:01:24.911Z,20.00
2018-08-17T05:03:53.436Z,18.30
2018-08-17T05:06:21.617Z,14.10
2018-08-17T05:08:49.934Z,11.70
2018-08-17T05:11:18.069Z,7.43
2018-08-17T05:13:46.249Z,7.10
2018-08-17T05:16:14.422Z,6.97
2018-08-17T05:18:42.589Z,5.90
2018-08-17T05:21:10.780Z,5.40
2018-08-17T05:23:38.955Z,5.03
2018-08-17T05:26:07.138Z,5.17
2018-08-17T05:28:35.318Z,4.73
2018-08-17T05:31:03.493Z,5.40
2018-08-17T05:33:31.679Z,5.70
2018-08-17T05:35:59.920Z,4.80
2018-08-17T05:38:28.045Z,4.43
2018-08-17T05:40:56.221Z,4.53
2018-08-17T05:43:24.421Z,5.20
2018-08-17T05:45:52.597Z,4.63
2018-08-17T05:48:20.769Z,5.10
2018-08-17T05:50:48.945Z,4.60
2018-08-17T05:53:17.124Z,4.77
2018-08-17T05:55:45.305Z,4.87
2018-08-17T05:58:13.473Z,4.63
2018-08-17T06:00:41.660Z,4.80
2018-08-17T06:03:09.832Z,5.03
2018-08-17T06:05:38.013Z,4.77
2018-08-17T06:08:06.199Z,4.20
2018-08-17T06:10:34.388Z,4.23
2018-08-17T06:13:02.655Z,4.87
2018-08-17T06:15:30.843Z,4.60
2018-08-17T06:17:59.009Z,4.10
2018-08-17T06:20:27.200Z,4.10
2018-08-17T06:22:55.384Z,4.07
2018-08-17T06:25:23.564Z,4.20
2018-08-17T06:27:51.732Z,4.10
2018-08-17T06:30:19.917Z,4.47
2018-08-17T06:32:48.100Z,3.73
2018-08-17T06:35:16.284Z,3.60
2018-08-17T06:37:44.680Z,3.90
2018-08-17T06:40:12.865Z,3.73
2018-08-17T06:42:41.043Z,5.53
2018-08-17T06:45:11.249Z,4.03
2018-08-17T06:47:39.430Z,4.70
2018-08-17T06:50:09.348Z,3.77
2018-08-17T06:52:38.339Z,3.40
2018-08-17T06:55:07.714Z,3.80
2018-08-17T06:57:36.024Z,3.57
2018-08-17T07:00:06.413Z,3.80
2018-08-17T07:02:34.613Z,3.50
2018-08-17T07:05:02.773Z,3.50
2018-08-17T07:07:30.952Z,3.50
2018-08-17T07:09:59.121Z,4.13
2018-08-17T07:12:27.304Z,3.40
2018-08-17T07:14:55.481Z,3.67
2018-08-17T07:17:23.657Z,3.60
2018-08-17T07:19:51.841Z,11.07
2018-08-17T07:22:20.017Z,4.10
2018-08-17T07:24:48.196Z,4.70
2018-08-17T07:27:16.395Z,5.50
2018-08-17T07:29:44.569Z,3.87
2018-08-17T07:32:12.745Z,3.20
2018-08-17T07:34:40.929Z,3.70
2018-08-17T07:37:09.100Z,3.63
2018-08-17T07:39:37.276Z,3.97
2018-08-17T07:42:05.537Z,3.50
2018-08-17T07:44:33.715Z,4.13
2018-08-17T07:47:01.901Z,3.40
2018-08-17T07:49:30.083Z,3.30
2018-08-17T07:51:58.257Z,3.10
2018-08-17T07:54:26.441Z,3.47
2018-08-17T07:56:54.705Z,3.63
2018-08-17T07:59:22.876Z,5.43
2018-08-17T08:01:51.052Z,3.90
2018-08-17T08:04:19.233Z,3.20
2018-08-17T08:06:47.409Z,3.77
2018-08-17T08:09:15.580Z,3.57
2018-08-17T08:11:43.761Z,3.30
2018-08-17T08:14:12.150Z,3.30
2018-08-17T08:16:40.329Z,3.10
2018-08-17T08:19:10.752Z,3.57
2018-08-17T08:21:39.080Z,4.10
2018-08-17T08:24:07.257Z,4.13
2018-08-17T08:26:35.437Z,7.40
2018-08-17T08:29:03.604Z,4.10
2018-08-17T08:31:31.810Z,3.43
2018-08-17T08:33:59.973Z,6.10
2018-08-17T08:36:28.141Z,3.77
2018-08-17T08:38:56.321Z,3.80
2018-08-17T08:41:24.493Z,4.23
2018-08-17T08:43:52.665Z,3.83
2018-08-17T08:46:20.845Z,3.60
2018-08-17T08:48:49.016Z,3.37
2018-08-17T08:51:17.193Z,3.50
2018-08-17T08:53:45.369Z,2.90
2018-08-17T08:56:13.537Z,3.20
2018-08-17T08:58:41.722Z,3.40
2018-08-17T09:01:09.897Z,3.20
2018-08-17T09:03:38.077Z,5.23
2018-08-17T09:06:06.261Z,3.43
2018-08-17T09:08:34.433Z,3.07
2018-08-17T09:11:02.608Z,3.07
2018-08-17T09:13:30.789Z,3.13
2018-08-17T09:15:58.960Z,4.13
2018-08-17T09:18:27.133Z,3.43
2018-08-17T09:20:55.321Z,3.20
2018-08-17T09:23:23.501Z,3.07
2018-08-17T09:25:51.678Z,3.53
2018-08-17T09:28:19.862Z,3.30
2018-08-17T09:30:48.033Z,3.10
2018-08-17T09:33:16.214Z,2.90
2018-08-17T09:35:44.460Z,2.80
2018-08-17T09:38:12.634Z,3.07
2018-08-17T09:40:40.808Z,3.00
2018-08-17T09:43:09.086Z,3.40
2018-08-17T09:45:37.249Z,2.80
2018-08-17T09:48:05.700Z,3.00
2018-08-17T09:50:34.942Z,3.10
2018-08-17T09:53:03.265Z,3.07
2018-08-17T09:55:31.461Z,2.93
2018-08-17T09:57:59.621Z,2.93
2018-08-17T10:00:33.197Z,2.90
2018-08-17T10:03:12.706Z,3.40
2018-08-17T10:05:42.820Z,3.30
2018-08-17T10:08:17.177Z,2.90
2018-08-17T10:10:45.359Z,2.50
2018-08-17T10:13:13.541Z,2.90
2018-08-17T10:15:41.714Z,2.67
2018-08-17T10:18:10.249Z,2.97
2018-08-17T10:20:38.454Z,2.80
2018-08-17T10:23:13.433Z,2.30
2018-08-17T10:25:41.605Z,2.57
2018-08-17T10:28:09.782Z,2.73
2018-08-17T10:30:37.956Z,2.90
2018-08-17T10:33:06.133Z,2.80
2018-08-17T10:35:35.445Z,2.70
2018-08-17T10:38:07.414Z,2.97
2018-08-17T10:40:35.635Z,2.93
2018-08-17T10:43:05.403Z,2.97
2018-08-17T10:45:33.989Z,2.83
2018-08-17T10:48:02.160Z,2.87
2018-08-17T10:50:31.666Z,5.03
2018-08-17T10:53:00.973Z,2.90
2018-08-17T10:55:35.378Z,3.40
2018-08-17T10:58:04.658Z,7.67
2018-08-17T11:00:32.832Z,2.70
2018-08-17T11:03:01.017Z,3.10
2018-08-17T11:05:29.188Z,2.83
2018-08-17T11:07:57.366Z,2.77
2018-08-17T11:10:25.549Z,3.73
2018-08-17T11:12:53.736Z,2.73
2018-08-17T11:15:21.961Z,2.90
2018-08-17T11:17:50.072Z,2.50
2018-08-17T11:20:18.566Z,2.60
2018-08-17T11:22:46.791Z,2.60
2018-08-17T11:25:14.937Z,2.60
2018-08-17T11:27:43.117Z,2.53
2018-08-17T11:30:12.905Z,2.47
2018-08-17T11:32:41.495Z,2.53
2018-08-17T11:35:09.668Z,2.20
2018-08-17T11:37:37.884Z,2.50
2018-08-17T11:40:07.649Z,2.60
2018-08-17T11:42:53.341Z,2.57
2018-08-17T11:45:23.793Z,2.33
2018-08-17T11:47:53.695Z,2.40
2018-08-17T11:50:23.089Z,2.87
2018-08-17T11:52:57.209Z,2.50
2018-08-17T11:55:26.701Z,2.70
2018-08-17T11:57:56.113Z,3.00
2018-08-17T12:00:24.593Z,2.93
2018-08-17T12:02:52.803Z,2.83
2018-08-17T12:05:21.141Z,2.93
2018-08-17T12:07:49.627Z,2.80
2018-08-17T12:10:17.792Z,2.73
2018-08-17T12:12:46.589Z,2.80
2018-08-17T12:15:15.281Z,3.10
2018-08-17T12:17:43.489Z,3.30
2018-08-17T12:20:11.749Z,2.90
2018-08-17T12:22:39.951Z,2.90
2018-08-17T12:25:08.757Z,2.73
2018-08-17T12:27:36.935Z,2.50
2018-08-17T12:30:06.245Z,3.10
2018-08-17T12:32:34.421Z,3.23
2018-08-17T12:35:02.593Z,3.00
2018-08-17T12:37:30.780Z,2.70
2018-08-17T12:39:58.944Z,2.70
2018-08-17T12:42:27.124Z,3.13
2018-08-17T12:45:02.656Z,2.30
2018-08-17T12:47:31.136Z,2.90
2018-08-17T12:49:59.313Z,2.53
2018-08-17T12:52:27.580Z,2.57
2018-08-17T12:54:55.668Z,2.60
2018-08-17T12:57:28.081Z,2.83
2018-08-17T12:59:56.253Z,2.73
2018-08-17T13:02:24.429Z,2.60
2018-08-17T13:04:52.601Z,2.70
2018-08-17T13:07:20.777Z,2.40
2018-08-17T13:09:52.284Z,2.50
2018-08-17T13:12:20.398Z,2.73
2018-08-17T13:14:49.400Z,3.67
2018-08-17T13:17:17.656Z,3.83
2018-08-17T13:19:45.757Z,2.90
2018-08-17T13:22:13.934Z,2.47
2018-08-17T13:24:42.096Z,2.83
2018-08-17T13:27:10.265Z,2.60
2018-08-17T13:29:38.448Z,2.90
2018-08-17T13:32:06.633Z,2.70
2018-08-17T13:34:34.805Z,2.70
2018-08-17T13:37:02.964Z,2.70
2018-08-17T13:39:31.137Z,2.63
2018-08-17T13:41:59.313Z,2.73
2018-08-17T13:44:27.476Z,3.40
2018-08-17T13:46:55.652Z,2.77
2018-08-17T13:49:23.826Z,3.03
2018-08-17T13:51:51.990Z,3.00
2018-08-17T13:54:20.162Z,2.80
2018-08-17T13:56:48.341Z,3.10
2018-08-17T13:59:16.509Z,3.10
2018-08-17T14:01:44.685Z,3.07
2018-08-17T14:04:12.865Z,2.83
2018-08-17T14:06:41.041Z,2.90
2018-08-17T14:09:09.217Z,3.03
2018-08-17T14:11:37.385Z,2.93
2018-08-17T14:14:05.565Z,3.30
2018-08-17T14:16:33.748Z,2.77
2018-08-17T14:19:01.937Z,3.03
2018-08-17T14:21:30.113Z,2.97
2018-08-17T14:23:58.285Z,3.20
2018-08-17T14:26:26.465Z,3.10
2018-08-17T14:28:54.715Z,3.57
2018-08-17T14:31:22.821Z,2.90
2018-08-17T14:33:51.021Z,2.80
2018-08-17T14:36:19.199Z,2.80
2018-08-17T14:38:47.373Z,3.07
2018-08-17T14:41:15.559Z,2.77
2018-08-17T14:43:43.729Z,3.83
2018-08-17T14:46:11.905Z,2.73
2018-08-17T14:48:40.076Z,4.20
2018-08-17T14:51:08.257Z,3.67
2018-08-17T14:53:36.427Z,3.07
2018-08-17T14:56:04.617Z,2.90
2018-08-17T14:58:32.796Z,2.50
2018-08-17T15:01:00.996Z,3.60
2018-08-17T15:03:29.144Z,3.10
2018-08-17T15:05:57.320Z,2.97
2018-08-17T15:08:25.493Z,2.97
2018-08-17T15:10:53.669Z,3.10
2018-08-17T15:13:21.862Z,2.77
2018-08-17T15:15:50.026Z,2.60
2018-08-17T15:18:18.200Z,2.50
2018-08-17T15:20:46.373Z,2.47
2018-08-17T15:23:14.541Z,2.70
2018-08-17T15:25:42.718Z,2.93
2018-08-17T15:28:10.888Z,2.83
2018-08-17T15:30:39.056Z,2.90
2018-08-17T15:33:07.549Z,2.70
2018-08-17T15:35:35.724Z,2.77
2018-08-17T15:38:03.890Z,2.60
2018-08-17T15:40:32.064Z,3.03
2018-08-17T15:43:04.484Z,2.80
2018-08-17T15:45:32.648Z,2.90
2018-08-17T15:48:00.831Z,2.60
2018-08-17T15:50:29.007Z,2.70
2018-08-17T15:52:57.177Z,2.63
2018-08-17T15:55:25.353Z,2.70
2018-08-17T15:57:53.578Z,3.03
2018-08-17T16:00:21.736Z,2.70
2018-08-17T16:02:49.912Z,2.63
2018-08-17T16:05:18.084Z,3.10
2018-08-17T16:07:46.261Z,2.90
2018-08-17T16:10:15.685Z,2.53
2018-08-17T16:12:44.344Z,2.80
2018-08-17T16:15:12.517Z,2.83
2018-08-17T16:17:40.710Z,2.80
2018-08-17T16:20:10.601Z,2.83
2018-08-17T16:22:39.039Z,2.80
2018-08-17T16:25:08.176Z,2.77
2018-08-17T16:27:36.360Z,2.80
2018-08-17T16:30:05.828Z,3.27
2018-08-17T16:32:33.997Z,2.80
2018-08-17T16:35:02.192Z,3.10
2018-08-17T16:37:30.463Z,3.53
2018-08-17T16:39:58.590Z,2.80
2018-08-17T16:42:32.081Z,2.80
2018-08-17T16:45:00.265Z,3.53
2018-08-17T16:47:28.460Z,7.07
2018-08-17T16:49:56.789Z,3.57
2018-08-17T16:52:24.985Z,2.90
2018-08-17T16:54:53.340Z,3.50
2018-08-17T16:57:21.520Z,3.07
2018-08-17T16:59:49.714Z,2.80
2018-08-17T17:02:17.885Z,2.80
2018-08-17T17:04:46.061Z,3.10
2018-08-17T17:07:14.237Z,2.70
2018-08-17T17:09:42.404Z,3.33
2018-08-17T17:12:11.556Z,3.10
2018-08-17T17:14:39.805Z,3.07
2018-08-17T17:17:07.976Z,3.00
2018-08-17T17:19:36.154Z,2.80
2018-08-17T17:22:04.425Z,2.87
2018-08-17T17:24:32.600Z,2.70
2018-08-17T17:27:00.832Z,2.93
2018-08-17T17:29:32.373Z,18.10
2018-08-17T17:32:00.548Z,6.83
2018-08-17T17:34:28.861Z,5.70
2018-08-17T17:36:57.289Z,9.00
2018-08-17T17:39:25.539Z,3.53
2018-08-17T17:41:53.709Z,6.03
2018-08-17T17:44:21.888Z,3.60
2018-08-17T17:46:50.077Z,2.97
2018-08-17T17:49:18.266Z,4.70
2018-08-17T17:51:46.428Z,4.80
2018-08-17T17:54:23.469Z,6.37
2018-08-17T17:56:57.697Z,6.23
2018-08-17T17:59:25.888Z,5.30
2018-08-17T18:01:54.232Z,4.17
2018-08-17T18:04:23.132Z,7.50
2018-08-17T18:06:51.421Z,15.87
2018-08-17T18:09:19.588Z,6.00
2018-08-17T18:11:47.768Z,8.07
2018-08-17T18:14:15.945Z,37.63
2018-08-17T18:16:44.125Z,42.97
2018-08-17T18:19:12.314Z,34.40
2018-08-17T18:21:40.505Z,11.90
2018-08-17T18:24:11.297Z,13.73
2018-08-17T18:26:45.175Z,8.10
2018-08-17T18:29:13.348Z,6.17
2018-08-17T18:31:41.520Z,7.40
2018-08-17T18:34:10.030Z,9.13
2018-08-17T18:36:38.247Z,8.80
2018-08-17T18:39:11.313Z,8.87
2018-08-17T18:41:39.785Z,8.23
2018-08-17T18:44:07.796Z,12.03
2018-08-17T18:46:36.377Z,17.93
2018-08-17T18:49:05.160Z,11.67
2018-08-17T18:51:33.353Z,11.57
2018-08-17T18:54:01.537Z,10.57
2018-08-17T18:56:29.857Z,8.23
2018-08-17T18:58:58.065Z,12.83
2018-08-17T19:01:26.239Z,12.47
2018-08-17T19:03:54.796Z,9.37
2018-08-17T19:06:23.069Z,15.27
2018-08-17T19:08:51.252Z,14.50
2018-08-17T19:11:19.435Z,10.43
2018-08-17T19:13:47.618Z,13.57
2018-08-17T19:16:15.823Z,9.50
2018-08-17T19:18:44.009Z,10.40
2018-08-17T19:21:13.444Z,6.83
2018-08-17T19:23:41.637Z,5.97
2018-08-17T19:26:10.404Z,7.87
2018-08-17T19:28:38.689Z,7.47
2018-08-17T19:31:07.172Z,7.50
2018-08-17T19:33:35.353Z,5.47
2018-08-17T19:36:03.929Z,7.23
2018-08-17T19:38:36.993Z,12.67
2018-08-17T19:41:05.197Z,23.17
2018-08-17T19:43:33.376Z,11.03
2018-08-17T19:46:01.684Z,8.57
2018-08-17T19:48:29.772Z,7.77
2018-08-17T19:50:58.034Z,9.17
2018-08-17T19:53:26.281Z,7.10
2018-08-17T19:55:54.656Z,8.10
2018-08-17T19:58:22.940Z,8.27
2018-08-17T20:00:51.024Z,8.00
2018-08-17T20:03:19.202Z,7.27
2018-08-17T20:05:47.378Z,6.27
2018-08-17T20:08:15.557Z,6.40
2018-08-17T20:10:43.736Z,6.70
2018-08-17T20:13:11.909Z,6.80
2018-08-17T20:15:40.085Z,5.83
2018-08-17T20:18:08.277Z,7.80
2018-08-17T20:20:36.470Z,14.77
2018-08-17T20:23:04.657Z,13.20
2018-08-17T20:25:32.841Z,15.97
2018-08-17T20:28:01.024Z,15.57
2018-08-17T20:30:29.213Z,10.30
2018-08-17T20:32:57.393Z,12.53
2018-08-17T20:35:25.573Z,9.63
2018-08-17T20:37:54.349Z,5.60
2018-08-17T20:40:22.630Z,5.83
2018-08-17T20:42:51.046Z,6.10
2018-08-17T20:45:19.482Z,5.50
2018-08-17T20:47:47.693Z,5.90
2018-08-17T20:50:17.172Z,5.53
2018-08-17T20:52:51.845Z,7.33
2018-08-17T20:55:20.376Z,7.30
2018-08-17T20:57:50.725Z,6.23
2018-08-17T21:00:19.123Z,5.10
2018-08-17T21:02:47.873Z,6.13
2018-08-17T21:05:17.342Z,5.30
2018-08-17T21:07:46.374Z,5.23
2018-08-17T21:10:14.567Z,4.90
2018-08-17T21:12:42.747Z,4.93
2018-08-17T21:15:10.925Z,5.67
2018-08-17T21:17:39.097Z,5.73
2018-08-17T21:20:07.301Z,19.37
2018-08-17T21:22:35.488Z,9.93
2018-08-17T21:25:04.697Z,13.70
2018-08-17T21:27:33.000Z,11.80
2018-08-17T21:30:01.838Z,7.67
2018-08-17T21:32:30.017Z,11.53
2018-08-17T21:34:58.399Z,9.77
2018-08-17T21:37:27.341Z,6.57
2018-08-17T21:39:56.641Z,7.83
2018-08-17T21:42:24.820Z,5.70
2018-08-17T21:44:52.992Z,5.40
2018-08-17T21:47:21.168Z,6.07
2018-08-17T21:49:49.340Z,5.43
2018-08-17T21:52:23.965Z,5.80
2018-08-17T21:54:52.132Z,5.37
2018-08-17T21:57:20.317Z,5.03
2018-08-17T21:59:51.457Z,5.37
2018-08-17T22:02:20.984Z,5.27
2018-08-17T22:04:49.147Z,5.20
2018-08-17T22:07:22.349Z,4.93
2018-08-17T22:09:51.221Z,4.80
2018-08-17T22:12:19.433Z,5.33
2018-08-17T22:14:48.389Z,5.30
2018-08-17T22:17:29.772Z,6.97
2018-08-17T22:19:57.952Z,5.43
2018-08-17T22:22:26.483Z,6.43
2018-08-17T22:24:55.737Z,10.70
2018-08-17T22:27:24.728Z,14.03
2018-08-17T22:29:54.173Z,8.97
2018-08-17T22:32:22.812Z,8.83
2018-08-17T22:34:51.300Z,8.17
2018-08-17T22:37:19.580Z,10.83
2018-08-17T22:39:47.957Z,9.40
2018-08-17T22:42:20.933Z,6.47
2018-08-17T22:44:49.425Z,6.73
2018-08-17T22:47:19.037Z,5.10
2018-08-17T22:49:47.829Z,5.70
2018-08-17T22:52:16.036Z,6.53
2018-08-17T22:54:49.692Z,4.80
2018-08-17T22:57:18.288Z,4.73
2018-08-17T22:59:46.469Z,4.83
2018-08-17T23:02:14.641Z,5.00
2018-08-17T23:04:42.829Z,30.67
2018-08-17T23:07:11.019Z,12.57
2018-08-17T23:09:39.197Z,16.53
2018-08-17T23:12:07.381Z,14.17
2018-08-17T23:14:35.560Z,10.00
2018-08-17T23:17:03.741Z,5.87
2018-08-17T23:19:31.913Z,7.23
2018-08-17T23:22:00.089Z,6.13
2018-08-17T23:24:28.264Z,6.43
2018-08-17T23:26:56.450Z,4.50
2018-08-17T23:29:24.633Z,6.17
2018-08-17T23:31:52.809Z,5.10
2018-08-17T23:34:20.984Z,5.20
2018-08-17T23:36:49.164Z,12.17
2018-08-17T23:39:17.342Z,5.50
2018-08-17T23:41:45.529Z,8.93
2018-08-17T23:44:13.713Z,5.37
2018-08-17T23:46:41.898Z,5.00
2018-08-17T23:49:10.086Z,7.70
2018-08-17T23:51:38.273Z,7.27
2018-08-17T23:54:06.459Z,5.57
2018-08-17T23:56:34.636Z,4.23
2018-08-17T23:59:02.817Z,5.27
